Flight Track Log - Related Links

Times and Time Zones

All times are in EDT time to prevent confusion due to time zone crossing. See the AWI3698 flight status page for this flight to view local times or setup timezone preferences in your user account.

Time Position Orientation Groundspeed Altitude Reporting Facility
EDT Latitude Longitude Course Direction KTS MPH feet Rate Location/Type
Fri 10:02:02 AM 39.8833 -75.2167 311° West 144 166 1,000  Level Philadelphia TRACON
Fri 10:02:20 AM 39.8833 -75.2000 90° East 148 170 1,600 1,747 Climbing Philadelphia TRACON
Fri 10:03:21 AM 39.9000 -75.1333 72° East 234 269 3,300 2,331 Climbing Philadelphia TRACON
Fri 10:04:00 AM 40.0769 -75.4268 323° Northwest  Level FlightAware Approximate
Fri 10:04:21 AM 39.9333 -75.0667 57° Northeast 242 278 6,300  Level Philadelphia TRACON
Fri 10:05:00 AM 40.1484 -75.4984 323° Northwest  Level FlightAware Approximate
Fri 10:05:21 AM 40.0000 -75.1333 323° Northwest 288 331 8,900  Level Philadelphia TRACON
Fri 10:06:00 AM 40.2222 -75.5583 311° West  Level FlightAware Approximate
Fri 10:06:21 AM 40.0500 -75.2167 308° West 341 392 10,100  Level Philadelphia TRACON
Fri 10:07:00 AM 40.2815 -75.6472 311° West  Level FlightAware Approximate
Fri 10:07:21 AM 40.1000 -75.3333 299° West 363 418 10,000  Level Philadelphia TRACON
Fri 10:08:21 AM 40.1489 -75.4228 306° West 392 451 11,400 1,785 Climbing New York Center
Fri 10:09:22 AM 40.2150 -75.5411 306° West 380 437 13,600 2,115 Climbing New York Center
Fri 10:10:23 AM 40.2697 -75.6294 309° West 358 412 15,700 1,686 Climbing New York Center
Fri 10:11:23 AM 40.3344 -75.7267 311° West 358 412 17,000 650 Climbing New York Center
Fri 10:12:23 AM 40.4108 -75.8439 311° West 364 419 17,000 407 Level New York Center
Fri 10:13:21 AM 40.4533 -75.9722 294° West 377 434 17,800 756 Climbing New York Center
Fri 10:14:22 AM 40.4742 -76.1078 281° West 372 428 18,500 750 Climbing New York Center
Fri 10:15:21 AM 40.4950 -76.2483 281° West 384 442 19,300 900 Climbing New York Center
Fri 10:16:22 AM 40.5175 -76.3869 282° West 390 449 20,300 1,131 Climbing New York Center
Fri 10:17:23 AM 40.5403 -76.5253 282° West 395 455 21,600 1,289 Climbing New York Center
Fri 10:18:23 AM 40.5753 -76.6567 289° West 390 449 22,900 1,450 Climbing New York Center
Fri 10:19:23 AM 40.6300 -76.7708 302° West 379 436 24,500 1,271 Climbing New York Center
Fri 10:20:21 AM 40.6825 -76.8847 301° West 374 430 25,400 756 Climbing New York Center
Fri 10:21:22 AM 40.7347 -77.0019 300° West 374 430 26,000 298 Climbing New York Center
Fri 10:22:22 AM 40.7889 -77.1219 301° West 374 430 26,000  Level New York Center
Fri 10:23:23 AM 40.8431 -77.2394 301° West 374 430 26,000  Level New York Center
Fri 10:24:23 AM 40.8836 -77.3367 299° West 379 436 26,000  Level New York Center
Fri 10:26:00 AM 41.0442 -77.4664 329° Northwest 342 394 26,000  Level Cleveland Center
Fri 10:27:00 AM 41.1394 -77.5253 335° Northwest 361 415 26,000  Level Cleveland Center
Fri 10:28:00 AM 41.2350 -77.5844 335° Northwest 371 427 26,000  Level Cleveland Center
Fri 10:29:00 AM 41.3322 -77.6436 335° Northwest 377 434 26,000  Level Cleveland Center
Fri 10:30:00 AM 41.4275 -77.7000 336° Northwest 377 434 26,000 -50 Level Cleveland Center
Fri 10:31:00 AM 41.5250 -77.7594 335° Northwest 377 434 25,900 -850 Descending Cleveland Center
Fri 10:32:00 AM 41.6203 -77.8222 334° Northwest 377 434 24,300 -1,550 Descending Cleveland Center
Fri 10:33:00 AM 41.7114 -77.8850 333° Northwest 377 434 22,800 -1,500 Descending Cleveland Center
Fri 10:34:00 AM 41.7806 -77.9850 313° West 367 422 21,300 -1,700 Descending Cleveland Center
Fri 10:35:00 AM 41.8636 -78.0597 326° Northwest 367 422 19,400 -1,150 Descending Cleveland Center
Fri 10:36:00 AM 41.9542 -78.1064 339° North 367 422 19,000 -200 Descending Cleveland Center
Fri 10:37:00 AM 42.0450 -78.1561 338° Northwest 367 422 19,000 -600 Level Cleveland Center
Fri 10:38:00 AM 42.1419 -78.2111 337° Northwest 357 411 17,800 -1,600 Descending Cleveland Center
Fri 10:39:00 AM 42.2283 -78.2586 338° Northwest 358 412 15,800 -2,000 Descending Cleveland Center
Fri 10:40:00 AM 42.3189 -78.3086 338° Northwest 358 412 13,800 -2,150 Descending Cleveland Center
Fri 10:41:00 AM 42.4075 -78.3533 340° North 351 404 11,500 -1,400 Descending Cleveland Center
Fri 10:42:00 AM 42.5044 -78.4061 338° Northwest 346 398 11,000 -700 Descending Cleveland Center
Fri 10:43:00 AM 42.5822 -78.4514 337° Northwest 325 374 10,100 -1,300 Descending Cleveland Center
Fri 10:44:00 AM 42.6603 -78.4967 337° Northwest 309 356 8,400 -1,700 Descending Cleveland Center
Fri 10:45:00 AM 42.7361 -78.5367 339° North 297 342 6,700 -1,450 Descending Cleveland Center
Fri 10:46:00 AM 42.8136 -78.5594 348° North 291 335 5,500 -1,250 Descending Cleveland Center
Fri 10:47:00 AM 42.8908 -78.5656 357° North 279 321 4,200 -750 Descending Cleveland Center
Fri 10:48:00 AM 42.9489 -78.5522 10° North 256 295 4,000 -200 Descending Cleveland Center

Login

Don't have an account? Register now (free) for customized features, flight alerts, and more!